createdAt,value
2018-07-06T00:00:07.038Z,20.12
2018-07-06T00:01:53.865Z,20.12
2018-07-06T00:03:40.657Z,20.10
2018-07-06T00:05:27.480Z,20.08
2018-07-06T00:07:14.237Z,20.13
2018-07-06T00:09:00.948Z,20.13
2018-07-06T00:10:47.777Z,20.19
2018-07-06T00:12:34.909Z,20.18
2018-07-06T00:14:21.760Z,20.13
2018-07-06T00:16:08.624Z,20.12
2018-07-06T00:17:55.557Z,20.16
2018-07-06T00:19:42.501Z,20.12
2018-07-06T00:21:29.560Z,20.12
2018-07-06T00:23:16.601Z,20.13
2018-07-06T00:25:03.307Z,20.08
2018-07-06T00:26:50.170Z,20.10
2018-07-06T00:28:36.901Z,20.11
2018-07-06T00:30:24.492Z,20.02
2018-07-06T00:32:11.560Z,20.05
2018-07-06T00:33:58.336Z,20.01
2018-07-06T00:35:45.096Z,20.05
2018-07-06T00:37:31.717Z,20.06
2018-07-06T00:39:18.433Z,20.09
2018-07-06T00:41:05.348Z,20.18
2018-07-06T00:42:52.036Z,20.11
2018-07-06T00:44:38.819Z,20.11
2018-07-06T00:46:25.494Z,20.11
2018-07-06T00:48:12.562Z,20.17
2018-07-06T00:49:59.805Z,20.04
2018-07-06T00:51:46.517Z,20.07
2018-07-06T00:53:33.305Z,20.05
2018-07-06T00:55:20.203Z,20.05
2018-07-06T00:57:07.339Z,20.04
2018-07-06T00:58:54.228Z,20.07
2018-07-06T01:00:41.106Z,20.04
2018-07-06T01:02:28.148Z,19.99
2018-07-06T01:04:15.009Z,19.97
2018-07-06T01:06:01.761Z,20.09
2018-07-06T01:07:48.731Z,20.12
2018-07-06T01:09:35.512Z,20.15
2018-07-06T01:11:22.570Z,20.15
2018-07-06T01:13:09.789Z,20.15
2018-07-06T01:14:56.616Z,20.11
2018-07-06T01:16:43.446Z,20.11
2018-07-06T01:18:30.288Z,19.94
2018-07-06T01:20:17.102Z,20.02
2018-07-06T01:22:03.801Z,19.93
2018-07-06T01:23:50.579Z,20.08
2018-07-06T01:25:37.268Z,19.89
2018-07-06T01:27:23.942Z,19.95
2018-07-06T01:29:10.653Z,19.94
2018-07-06T01:30:57.340Z,20.02
2018-07-06T01:32:44.090Z,19.95
2018-07-06T01:34:30.828Z,19.62
2018-07-06T01:36:17.764Z,19.71
2018-07-06T01:38:04.816Z,19.66
2018-07-06T01:39:51.583Z,19.68
2018-07-06T01:41:38.296Z,19.51
2018-07-06T01:43:25.087Z,19.53
2018-07-06T01:45:11.819Z,19.53
2018-07-06T01:46:58.712Z,19.56
2018-07-06T01:48:45.421Z,19.70
2018-07-06T01:50:32.244Z,19.73
2018-07-06T01:52:19.103Z,19.64
2018-07-06T01:54:05.886Z,19.63
2018-07-06T01:55:52.724Z,19.60
2018-07-06T01:57:39.940Z,19.56
2018-07-06T01:59:26.862Z,19.55
2018-07-06T02:01:13.574Z,19.48
2018-07-06T02:03:00.316Z,19.45
2018-07-06T02:04:47.085Z,19.43
2018-07-06T02:06:33.962Z,19.38
2018-07-06T02:08:20.631Z,19.43
2018-07-06T02:10:07.339Z,19.38
2018-07-06T02:11:54.171Z,19.33
2018-07-06T02:13:41.160Z,19.28
2018-07-06T02:15:28.159Z,19.29
2018-07-06T02:17:18.564Z,19.27
2018-07-06T02:19:05.281Z,19.26
2018-07-06T02:20:52.058Z,19.21
2018-07-06T02:22:39.361Z,19.25
2018-07-06T02:24:26.100Z,19.22
2018-07-06T02:26:12.829Z,19.19
2018-07-06T02:27:59.478Z,19.16
2018-07-06T02:29:46.407Z,19.13
2018-07-06T02:31:33.191Z,19.20
2018-07-06T02:33:20.066Z,19.20
2018-07-06T02:35:06.912Z,19.21
2018-07-06T02:36:53.734Z,19.20
2018-07-06T02:38:40.464Z,19.22
2018-07-06T02:40:27.651Z,19.22
2018-07-06T02:42:14.536Z,19.25
2018-07-06T02:44:01.631Z,19.22
2018-07-06T02:45:48.435Z,19.25
2018-07-06T02:47:35.272Z,19.25
2018-07-06T02:49:22.152Z,19.25
2018-07-06T02:51:09.049Z,19.26
2018-07-06T02:52:55.780Z,19.22
2018-07-06T02:54:42.745Z,19.20
2018-07-06T02:56:29.550Z,19.20
2018-07-06T02:58:16.210Z,19.19
2018-07-06T03:00:02.976Z,19.16
2018-07-06T03:01:49.955Z,19.21
2018-07-06T03:03:36.824Z,19.22
2018-07-06T03:05:23.738Z,19.25
2018-07-06T03:07:10.601Z,19.26
2018-07-06T03:08:57.584Z,19.26
2018-07-06T03:10:44.471Z,19.28
2018-07-06T03:12:31.211Z,19.33
2018-07-06T03:14:18.316Z,19.30
2018-07-06T03:16:05.225Z,19.35
2018-07-06T03:17:52.444Z,19.21
2018-07-06T03:19:39.650Z,19.28
2018-07-06T03:21:26.467Z,19.30
2018-07-06T03:23:13.344Z,19.28
2018-07-06T03:25:00.015Z,19.32
2018-07-06T03:26:46.781Z,19.29
2018-07-06T03:28:34.456Z,19.27
2018-07-06T03:30:21.005Z,19.28
2018-07-06T03:32:07.776Z,19.28
2018-07-06T03:33:54.589Z,19.31
2018-07-06T03:35:41.260Z,19.24
2018-07-06T03:37:28.129Z,19.26
2018-07-06T03:39:15.027Z,19.23
2018-07-06T03:41:01.882Z,19.25
2018-07-06T03:42:48.716Z,19.22
2018-07-06T03:44:35.591Z,19.15
2018-07-06T03:46:22.280Z,19.19
2018-07-06T03:48:09.081Z,19.23
2018-07-06T03:49:55.822Z,19.23
2018-07-06T03:51:42.615Z,19.24
2018-07-06T03:53:29.243Z,19.29
2018-07-06T03:55:20.673Z,19.27
2018-07-06T03:57:07.546Z,19.23
2018-07-06T03:58:54.608Z,19.08
2018-07-06T04:00:41.456Z,19.15
2018-07-06T04:02:28.152Z,19.13
2018-07-06T04:04:14.856Z,19.30
2018-07-06T04:06:01.906Z,19.20
2018-07-06T04:07:48.758Z,19.24
2018-07-06T04:09:35.607Z,19.18
2018-07-06T04:11:22.629Z,19.11
2018-07-06T04:13:09.380Z,19.13
2018-07-06T04:14:56.056Z,19.21
2018-07-06T04:16:43.374Z,19.19
2018-07-06T04:18:30.208Z,19.28
2018-07-06T04:20:17.090Z,19.28
2018-07-06T04:22:03.909Z,19.28
2018-07-06T04:23:50.760Z,19.28
2018-07-06T04:25:37.535Z,19.30
2018-07-06T04:27:24.396Z,19.36
2018-07-06T04:29:11.203Z,19.34
2018-07-06T04:30:58.060Z,19.39
2018-07-06T04:32:44.844Z,19.46
2018-07-06T04:34:31.995Z,19.60
2018-07-06T04:36:19.036Z,19.66
2018-07-06T04:38:05.927Z,19.72
2018-07-06T04:39:52.818Z,19.80
2018-07-06T04:41:39.699Z,19.84
2018-07-06T04:43:26.592Z,20.03
2018-07-06T04:45:13.272Z,20.21
2018-07-06T04:46:59.953Z,20.35
2018-07-06T04:48:46.819Z,20.85
2018-07-06T04:50:33.631Z,21.22
2018-07-06T04:52:20.374Z,20.87
2018-07-06T04:54:07.144Z,20.74
2018-07-06T04:55:54.322Z,20.66
2018-07-06T04:57:41.259Z,20.73
2018-07-06T04:59:28.052Z,20.80
2018-07-06T05:01:15.162Z,20.62
2018-07-06T05:03:02.076Z,20.35
2018-07-06T05:04:49.020Z,20.02
2018-07-06T05:06:35.825Z,19.76
2018-07-06T05:08:23.700Z,19.59
2018-07-06T05:10:10.886Z,19.47
2018-07-06T05:11:57.735Z,19.38
2018-07-06T05:13:44.690Z,19.24
2018-07-06T05:15:31.380Z,19.20
2018-07-06T05:17:18.285Z,19.06
2018-07-06T05:19:05.152Z,19.07
2018-07-06T05:20:51.790Z,19.07
2018-07-06T05:22:38.693Z,18.96
2018-07-06T05:24:25.516Z,18.88
2018-07-06T05:26:12.342Z,18.99
2018-07-06T05:27:59.172Z,19.23
2018-07-06T05:29:46.624Z,19.12
2018-07-06T05:31:33.509Z,19.39
2018-07-06T05:33:21.173Z,19.47
2018-07-06T05:35:07.981Z,19.56
2018-07-06T05:36:54.786Z,19.42
2018-07-06T05:38:41.514Z,19.74
2018-07-06T05:40:28.208Z,19.86
2018-07-06T05:42:15.090Z,19.65
2018-07-06T05:44:01.803Z,19.55
2018-07-06T05:45:48.609Z,19.60
2018-07-06T05:47:35.435Z,19.50
2018-07-06T05:49:22.516Z,19.51
2018-07-06T05:51:09.368Z,19.57
2018-07-06T05:52:57.328Z,19.53
2018-07-06T05:54:44.376Z,19.57
2018-07-06T05:56:31.061Z,19.61
2018-07-06T05:58:17.892Z,19.47
2018-07-06T06:00:04.722Z,19.29
2018-07-06T06:01:51.554Z,19.25
2018-07-06T06:03:38.581Z,19.45
2018-07-06T06:05:25.368Z,19.62
2018-07-06T06:07:12.150Z,19.94
2018-07-06T06:08:46.712Z,20.07
2018-07-06T06:10:22.275Z,20.18
2018-07-06T06:11:57.940Z,20.27
2018-07-06T06:13:33.644Z,20.40
2018-07-06T06:15:09.465Z,20.18
2018-07-06T06:16:45.042Z,19.96
2018-07-06T06:18:20.776Z,19.79
2018-07-06T06:19:56.369Z,19.62
2018-07-06T06:21:31.957Z,19.50
2018-07-06T06:23:07.608Z,19.44
2018-07-06T06:24:43.149Z,19.54
2018-07-06T06:26:24.609Z,19.48
2018-07-06T06:28:00.160Z,19.31
2018-07-06T06:29:35.849Z,19.44
2018-07-06T06:31:11.428Z,19.65
2018-07-06T06:32:46.953Z,19.56
2018-07-06T06:34:22.707Z,19.74
2018-07-06T06:35:58.273Z,19.98
2018-07-06T06:37:33.832Z,20.11
2018-07-06T06:39:09.401Z,20.12
2018-07-06T06:40:44.950Z,20.03
2018-07-06T06:42:20.526Z,19.86
2018-07-06T06:43:56.143Z,19.97
2018-07-06T06:45:31.689Z,20.06
2018-07-06T06:47:07.311Z,20.20
2018-07-06T06:48:42.997Z,20.11
2018-07-06T06:50:18.617Z,20.03
2018-07-06T06:51:54.439Z,20.13
2018-07-06T06:53:29.996Z,19.98
2018-07-06T06:55:05.544Z,20.03
2018-07-06T06:56:41.290Z,20.19
2018-07-06T06:58:16.927Z,20.09
2018-07-06T06:59:52.493Z,20.04
2018-07-06T07:01:28.081Z,19.96
2018-07-06T07:03:03.956Z,19.86
2018-07-06T07:04:39.789Z,20.04
2018-07-06T07:06:15.357Z,20.20
2018-07-06T07:07:50.971Z,20.34
2018-07-06T07:09:26.439Z,20.36
2018-07-06T07:11:02.025Z,20.47
2018-07-06T07:12:37.586Z,20.40
2018-07-06T07:14:13.270Z,20.38
2018-07-06T07:15:48.782Z,20.41
2018-07-06T07:17:24.874Z,20.41
2018-07-06T07:19:00.460Z,20.37
2018-07-06T07:20:36.054Z,20.28
2018-07-06T07:22:11.642Z,20.18
2018-07-06T07:23:47.212Z,20.25
2018-07-06T07:27:28.167Z,19.79
2018-07-06T07:29:03.728Z,19.83
2018-07-06T07:30:39.365Z,20.12
2018-07-06T07:32:14.995Z,20.43
2018-07-06T07:33:50.773Z,20.75
2018-07-06T07:35:26.384Z,20.66
2018-07-06T07:37:02.096Z,20.79
2018-07-06T07:38:37.662Z,20.74
2018-07-06T07:40:13.357Z,20.86
2018-07-06T07:41:48.957Z,20.93
2018-07-06T07:43:24.549Z,21.11
2018-07-06T07:45:00.147Z,21.16
2018-07-06T07:46:35.882Z,21.22
2018-07-06T07:48:11.454Z,21.39
2018-07-06T07:49:47.295Z,21.52
2018-07-06T07:52:01.327Z,21.45
2018-07-06T07:53:48.065Z,21.18
2018-07-06T07:55:23.619Z,21.16
2018-07-06T07:57:00.113Z,21.15
2018-07-06T07:58:35.696Z,21.16
2018-07-06T08:00:11.576Z,21.05
2018-07-06T08:01:47.127Z,21.33
2018-07-06T08:03:22.732Z,21.57
2018-07-06T08:04:58.303Z,21.08
2018-07-06T08:06:33.898Z,20.76
2018-07-06T08:08:09.451Z,20.62
2018-07-06T08:09:45.093Z,20.76
2018-07-06T08:11:20.702Z,21.30
2018-07-06T08:12:56.273Z,21.69
2018-07-06T08:14:31.882Z,21.62
2018-07-06T08:16:07.815Z,21.80
2018-07-06T08:17:43.633Z,22.09
2018-07-06T08:19:19.428Z,21.80
2018-07-06T08:20:54.993Z,22.01
2018-07-06T08:22:30.569Z,22.36
2018-07-06T08:24:06.172Z,22.66
2018-07-06T08:25:41.740Z,22.07
2018-07-06T08:27:17.331Z,22.08
2018-07-06T08:28:52.883Z,22.54
2018-07-06T08:30:29.188Z,22.46
2018-07-06T08:32:04.753Z,22.09
2018-07-06T08:33:49.022Z,22.10
2018-07-06T08:35:35.831Z,22.03
2018-07-06T08:37:28.046Z,22.36
2018-07-06T08:39:03.924Z,22.13
2018-07-06T08:40:39.488Z,22.14
2018-07-06T08:42:15.041Z,22.36
2018-07-06T08:43:50.597Z,22.94
2018-07-06T08:45:26.893Z,22.72
2018-07-06T08:47:02.473Z,22.85
2018-07-06T08:48:38.147Z,22.62
2018-07-06T08:50:13.694Z,22.97
2018-07-06T08:51:49.601Z,23.40
2018-07-06T08:53:25.142Z,23.47
2018-07-06T08:55:00.741Z,23.19
2018-07-06T08:56:36.660Z,23.26
2018-07-06T08:58:12.526Z,23.17
2018-07-06T08:59:48.768Z,22.84
2018-07-06T09:01:24.529Z,22.80
2018-07-06T09:03:00.120Z,23.14
2018-07-06T09:04:36.066Z,22.98
2018-07-06T09:06:11.913Z,23.01
2018-07-06T09:07:47.761Z,23.16
2018-07-06T09:09:23.379Z,22.76
2018-07-06T09:10:58.891Z,22.39
2018-07-06T09:12:34.473Z,22.50
2018-07-06T09:14:10.067Z,22.63
2018-07-06T09:15:45.672Z,22.29
2018-07-06T09:17:22.788Z,22.37
2018-07-06T09:18:58.423Z,22.64
2018-07-06T09:20:33.980Z,22.65
2018-07-06T09:22:09.663Z,22.83
2018-07-06T09:23:45.436Z,22.88
2018-07-06T09:25:21.263Z,23.03
2018-07-06T09:26:56.787Z,23.20
2018-07-06T09:28:32.507Z,22.86
2018-07-06T09:30:08.363Z,23.18
2018-07-06T09:31:44.039Z,22.92
2018-07-06T09:33:19.592Z,22.84
2018-07-06T09:34:55.729Z,22.93
2018-07-06T09:36:31.741Z,22.67
2018-07-06T09:38:07.311Z,22.67
2018-07-06T09:39:43.605Z,22.88
2018-07-06T09:41:19.183Z,22.93
2018-07-06T09:42:54.752Z,23.09
2018-07-06T09:44:30.378Z,23.25
2018-07-06T09:46:06.213Z,23.35
2018-07-06T09:47:41.776Z,23.32
2018-07-06T09:49:17.499Z,23.50
2018-07-06T09:50:53.106Z,23.28
2018-07-06T09:52:28.667Z,23.35
2018-07-06T09:54:04.230Z,23.66
2018-07-06T09:55:39.828Z,23.80
2018-07-06T09:57:15.406Z,23.67
2018-07-06T09:58:51.064Z,23.65
2018-07-06T10:00:32.055Z,23.60
2018-07-06T10:02:07.685Z,23.92
2018-07-06T10:03:43.232Z,23.85
2018-07-06T10:05:18.801Z,23.52
2018-07-06T10:06:54.626Z,23.09
2018-07-06T10:08:30.202Z,22.89
2018-07-06T10:10:05.802Z,23.34
2018-07-06T10:11:41.364Z,23.25
2018-07-06T10:13:17.016Z,23.06
2018-07-06T10:14:52.625Z,23.03
2018-07-06T10:16:28.159Z,23.21
2018-07-06T10:18:03.720Z,23.20
2018-07-06T10:19:39.622Z,22.90
2018-07-06T10:21:15.165Z,22.93
2018-07-06T10:22:50.740Z,23.71
2018-07-06T10:24:26.327Z,23.84
2018-07-06T10:26:01.869Z,23.90
2018-07-06T10:27:46.217Z,23.68
2018-07-06T10:29:48.369Z,23.51
2018-07-06T10:31:34.097Z,23.34
2018-07-06T10:33:09.841Z,23.47
2018-07-06T10:34:45.428Z,23.53
2018-07-06T10:36:21.182Z,23.69
2018-07-06T10:37:56.784Z,23.63
2018-07-06T10:39:32.379Z,23.41
2018-07-06T10:41:07.884Z,23.27
2018-07-06T10:42:43.455Z,23.58
2018-07-06T10:44:19.050Z,23.39
2018-07-06T10:45:54.599Z,23.74
2018-07-06T10:47:30.162Z,23.92
2018-07-06T10:49:06.112Z,24.28
2018-07-06T10:50:41.810Z,24.77
2018-07-06T10:52:17.862Z,24.75
2018-07-06T10:53:53.425Z,24.79
2018-07-06T10:55:29.038Z,24.66
2018-07-06T10:57:04.940Z,24.56
2018-07-06T10:58:40.517Z,24.36
2018-07-06T11:00:16.062Z,24.36
2018-07-06T11:01:51.676Z,24.47
2018-07-06T11:03:27.261Z,24.15
2018-07-06T11:05:02.904Z,24.25
2018-07-06T11:06:38.538Z,24.68
2018-07-06T11:08:14.134Z,24.67
2018-07-06T11:09:49.703Z,24.45
2018-07-06T11:11:25.279Z,24.46
2018-07-06T11:13:00.852Z,24.38
2018-07-06T11:14:36.442Z,24.79
2018-07-06T11:16:11.980Z,24.96
2018-07-06T11:17:47.633Z,24.71
2018-07-06T11:19:23.349Z,24.73
2018-07-06T11:20:58.946Z,24.67
2018-07-06T11:22:34.593Z,24.72
2018-07-06T11:24:10.725Z,24.63
2018-07-06T11:25:46.276Z,24.54
2018-07-06T11:27:22.080Z,24.66
2018-07-06T11:28:57.664Z,24.54
2018-07-06T11:30:33.264Z,24.47
2018-07-06T11:32:08.883Z,24.29
2018-07-06T11:33:44.384Z,24.62
2018-07-06T11:35:20.069Z,24.77
2018-07-06T11:36:55.670Z,24.74
2018-07-06T11:38:31.276Z,24.93
2018-07-06T11:40:06.852Z,24.70
2018-07-06T11:41:42.556Z,24.73
2018-07-06T11:43:18.382Z,24.61
2018-07-06T11:44:54.062Z,24.73
2018-07-06T11:46:29.837Z,24.39
2018-07-06T11:48:05.393Z,24.31
2018-07-06T11:49:41.475Z,24.63
2018-07-06T11:51:17.225Z,24.98
2018-07-06T11:52:52.807Z,24.91
2018-07-06T11:54:28.364Z,25.06
2018-07-06T11:56:04.032Z,24.98
2018-07-06T11:57:39.573Z,24.82
2018-07-06T11:59:15.253Z,24.89
2018-07-06T12:00:50.876Z,25.25
2018-07-06T12:02:26.507Z,25.46
2018-07-06T12:04:02.492Z,25.57
2018-07-06T12:05:38.365Z,25.42
2018-07-06T12:07:14.041Z,25.50
2018-07-06T12:08:49.606Z,25.72
2018-07-06T12:10:25.177Z,25.70
2018-07-06T12:12:00.705Z,25.54
2018-07-06T12:13:36.590Z,25.41
2018-07-06T12:15:12.493Z,25.41
2018-07-06T12:16:48.355Z,25.27
2018-07-06T12:18:23.961Z,25.07
2018-07-06T12:19:59.532Z,25.29
2018-07-06T12:21:35.551Z,25.18
2018-07-06T12:23:11.122Z,25.26
2018-07-06T12:24:46.725Z,25.50
2018-07-06T12:26:22.279Z,24.90
2018-07-06T12:27:57.829Z,25.40
2018-07-06T12:29:33.396Z,25.60
2018-07-06T12:31:09.016Z,25.63
2018-07-06T12:32:45.003Z,25.95
2018-07-06T12:34:20.556Z,25.52
2018-07-06T12:35:56.249Z,25.15
2018-07-06T12:37:31.844Z,25.14
2018-07-06T12:39:07.436Z,25.25
2018-07-06T12:40:43.262Z,25.23
2018-07-06T12:42:19.177Z,25.51
2018-07-06T12:43:54.748Z,25.40
2018-07-06T12:45:30.500Z,25.64
2018-07-06T12:47:06.115Z,25.44
2018-07-06T12:48:41.711Z,26.18
2018-07-06T12:50:17.518Z,26.19
2018-07-06T12:51:56.157Z,26.05
2018-07-06T12:53:32.014Z,26.35
2018-07-06T12:55:07.745Z,26.49
2018-07-06T12:56:43.706Z,26.26
2018-07-06T12:58:19.346Z,26.19
2018-07-06T12:59:54.846Z,26.45
2018-07-06T13:01:30.411Z,26.38
2018-07-06T13:03:06.007Z,26.24
2018-07-06T13:04:41.556Z,26.02
2018-07-06T13:06:17.154Z,25.95
2018-07-06T13:07:52.731Z,25.70
2018-07-06T13:09:28.275Z,25.68
2018-07-06T13:11:03.886Z,25.62
2018-07-06T13:12:39.485Z,25.77
2018-07-06T13:14:15.307Z,26.07
2018-07-06T13:15:50.972Z,25.88
2018-07-06T13:17:26.530Z,26.16
2018-07-06T13:19:02.089Z,26.19
2018-07-06T13:20:37.682Z,26.33
2018-07-06T13:22:14.067Z,26.57
2018-07-06T13:23:50.024Z,26.77
2018-07-06T13:25:25.644Z,26.73
2018-07-06T13:27:01.434Z,26.74
2018-07-06T13:28:37.010Z,26.37
2018-07-06T13:30:12.599Z,26.33
2018-07-06T13:31:48.167Z,26.33
2018-07-06T13:33:23.762Z,26.17
2018-07-06T13:34:59.329Z,25.51
2018-07-06T13:36:34.914Z,25.45
2018-07-06T13:38:10.468Z,25.65
2018-07-06T13:39:46.036Z,25.58
2018-07-06T13:41:21.631Z,25.38
2018-07-06T13:42:57.191Z,25.42
2018-07-06T13:44:32.749Z,25.11
2018-07-06T13:46:08.275Z,25.34
2018-07-06T13:47:43.858Z,25.56
2018-07-06T13:49:19.896Z,25.54
2018-07-06T13:50:55.440Z,25.51
2018-07-06T13:52:31.052Z,25.71
2018-07-06T13:54:06.813Z,25.89
2018-07-06T13:55:42.691Z,25.93
2018-07-06T13:57:18.250Z,26.37
2018-07-06T13:58:54.598Z,26.38
2018-07-06T14:00:30.385Z,26.26
2018-07-06T14:02:06.308Z,26.27
2018-07-06T14:03:42.121Z,26.39
2018-07-06T14:05:17.688Z,26.41
2018-07-06T14:06:53.594Z,26.58
2018-07-06T14:08:29.153Z,26.42
2018-07-06T14:10:05.246Z,26.43
2018-07-06T14:11:41.084Z,26.23
2018-07-06T14:13:16.611Z,26.15
2018-07-06T14:14:52.257Z,26.35
2018-07-06T14:16:27.861Z,26.20
2018-07-06T14:18:03.470Z,25.78
2018-07-06T14:19:39.127Z,25.63
2018-07-06T14:21:14.635Z,25.64
2018-07-06T14:22:50.364Z,25.66
2018-07-06T14:24:26.106Z,25.60
2018-07-06T14:26:01.728Z,25.51
2018-07-06T14:27:37.303Z,25.73
2018-07-06T14:29:12.890Z,26.00
2018-07-06T14:30:48.434Z,26.20
2018-07-06T14:32:23.984Z,26.36
2018-07-06T14:33:59.565Z,26.03
2018-07-06T14:35:35.096Z,25.89
2018-07-06T14:37:10.645Z,26.02
2018-07-06T14:38:46.233Z,26.33
2018-07-06T14:40:21.763Z,26.38
2018-07-06T14:41:57.339Z,26.04
2018-07-06T14:43:32.945Z,26.12
2018-07-06T14:45:08.506Z,26.55
2018-07-06T14:46:44.066Z,26.49
2018-07-06T14:48:19.666Z,26.43
2018-07-06T14:49:55.294Z,26.50
2018-07-06T14:51:30.871Z,26.66
2018-07-06T14:53:06.453Z,26.64
2018-07-06T14:54:42.028Z,26.45
2018-07-06T14:56:17.609Z,26.38
2018-07-06T14:57:53.584Z,26.31
2018-07-06T14:59:29.415Z,26.14
2018-07-06T15:01:05.007Z,26.40
2018-07-06T15:02:40.655Z,26.59
2018-07-06T15:04:16.254Z,26.86
2018-07-06T15:05:51.999Z,26.92
2018-07-06T15:07:27.594Z,26.88
2018-07-06T15:09:03.288Z,26.82
2018-07-06T15:10:38.815Z,26.63
2018-07-06T15:12:14.455Z,26.37
2018-07-06T15:13:50.013Z,26.67
2018-07-06T15:15:25.576Z,26.66
2018-07-06T15:17:01.124Z,26.40
2018-07-06T15:18:36.716Z,26.12
2018-07-06T15:20:12.361Z,26.18
2018-07-06T15:21:47.964Z,26.40
2018-07-06T15:23:23.548Z,26.05
2018-07-06T15:24:59.127Z,26.06
2018-07-06T15:26:34.795Z,25.58
2018-07-06T15:28:10.381Z,25.80
2018-07-06T15:29:45.930Z,25.97
2018-07-06T15:31:21.923Z,25.79
2018-07-06T15:32:57.454Z,25.89
2018-07-06T15:34:33.011Z,26.01
2018-07-06T15:36:08.607Z,26.02
2018-07-06T15:37:44.147Z,26.23
2018-07-06T15:39:19.847Z,26.32
2018-07-06T15:40:55.453Z,26.55
2018-07-06T15:42:30.946Z,26.66
2018-07-06T15:44:06.646Z,26.62
2018-07-06T15:45:42.206Z,26.68
2018-07-06T15:47:17.790Z,26.62
2018-07-06T15:48:53.492Z,26.73
2018-07-06T15:50:29.405Z,26.85
2018-07-06T15:52:04.983Z,26.65
2018-07-06T15:53:40.602Z,26.29
2018-07-06T15:55:16.138Z,26.16
2018-07-06T15:56:51.747Z,26.13
2018-07-06T15:58:27.370Z,25.78
2018-07-06T16:00:02.937Z,25.87
2018-07-06T16:01:38.510Z,25.90
2018-07-06T16:03:14.121Z,25.82
2018-07-06T16:04:49.710Z,25.74
2018-07-06T16:06:25.271Z,25.63
2018-07-06T16:08:00.851Z,25.38
2018-07-06T16:09:36.414Z,25.29
2018-07-06T16:11:11.962Z,25.43
2018-07-06T16:12:47.563Z,25.47
2018-07-06T16:14:23.150Z,25.49
2018-07-06T16:15:58.721Z,25.22
2018-07-06T16:17:34.391Z,25.07
2018-07-06T16:19:09.933Z,24.92
2018-07-06T16:20:45.537Z,24.85
2018-07-06T16:22:21.509Z,24.74
2018-07-06T16:23:57.089Z,24.67
2018-07-06T16:25:32.814Z,24.68
2018-07-06T16:27:08.377Z,24.61
2018-07-06T16:28:43.928Z,24.58
2018-07-06T16:30:19.753Z,24.52
2018-07-06T16:31:55.366Z,24.44
2018-07-06T16:33:30.943Z,24.43
2018-07-06T16:35:06.610Z,24.33
2018-07-06T16:36:42.199Z,24.22
2018-07-06T16:38:17.757Z,24.20
2018-07-06T16:39:53.327Z,24.06
2018-07-06T16:41:28.977Z,24.08
2018-07-06T16:43:04.560Z,23.99
2018-07-06T16:44:40.208Z,23.95
2018-07-06T16:46:16.212Z,24.03
2018-07-06T16:47:51.741Z,24.20
2018-07-06T16:49:27.291Z,24.16
2018-07-06T16:51:03.032Z,23.98
2018-07-06T16:52:38.900Z,24.08
2018-07-06T16:54:14.592Z,24.20
2018-07-06T16:55:50.358Z,24.15
2018-07-06T16:57:25.976Z,24.07
2018-07-06T16:59:01.516Z,24.02
2018-07-06T17:00:37.140Z,24.08
2018-07-06T17:02:12.732Z,24.07
2018-07-06T17:03:48.464Z,24.06
2018-07-06T17:05:24.044Z,24.13
2018-07-06T17:06:59.662Z,24.38
2018-07-06T17:08:35.199Z,24.34
2018-07-06T17:10:11.046Z,24.31
2018-07-06T17:11:46.844Z,24.21
2018-07-06T17:13:22.596Z,24.02
2018-07-06T17:14:58.194Z,24.02
2018-07-06T17:16:33.816Z,24.06
2018-07-06T17:18:09.562Z,23.99
2018-07-06T17:19:45.156Z,24.01
2018-07-06T17:21:20.679Z,24.13
2018-07-06T17:22:56.301Z,24.16
2018-07-06T17:24:31.857Z,24.28
2018-07-06T17:26:07.405Z,24.35
2018-07-06T17:27:43.094Z,24.39
2018-07-06T17:29:18.716Z,24.44
2018-07-06T17:30:54.276Z,24.49
2018-07-06T17:32:29.884Z,24.49
2018-07-06T17:34:05.474Z,24.45
2018-07-06T17:35:41.347Z,24.35
2018-07-06T17:37:16.946Z,24.41
2018-07-06T17:38:52.536Z,24.37
2018-07-06T17:40:28.104Z,24.44
2018-07-06T17:42:03.666Z,24.23
2018-07-06T17:43:39.228Z,24.32
2018-07-06T17:45:14.837Z,24.21
2018-07-06T17:46:50.708Z,24.04
2018-07-06T17:48:26.315Z,24.06
2018-07-06T17:50:01.854Z,23.94
2018-07-06T17:51:37.439Z,23.80
2018-07-06T17:53:13.043Z,23.84
2018-07-06T17:54:48.588Z,23.82
2018-07-06T17:56:25.880Z,23.83
2018-07-06T17:58:01.393Z,23.89
2018-07-06T17:59:36.985Z,23.94
2018-07-06T18:01:12.523Z,24.04
2018-07-06T18:02:48.133Z,23.94
2018-07-06T18:04:23.688Z,24.10
2018-07-06T18:05:59.290Z,24.10
2018-07-06T18:07:35.170Z,23.92
2018-07-06T18:09:10.817Z,23.89
2018-07-06T18:10:46.293Z,23.81
2018-07-06T18:12:21.847Z,23.78
2018-07-06T18:13:57.490Z,23.81
2018-07-06T18:15:33.396Z,23.79
2018-07-06T18:17:08.952Z,23.69
2018-07-06T18:18:44.564Z,23.69
2018-07-06T18:20:20.754Z,23.53
2018-07-06T18:21:56.514Z,23.56
2018-07-06T18:23:32.675Z,23.68
2018-07-06T18:25:08.586Z,23.55
2018-07-06T18:26:44.216Z,23.54
2018-07-06T18:28:19.979Z,23.51
2018-07-06T18:29:55.610Z,23.53
2018-07-06T18:31:31.216Z,23.65
2018-07-06T18:33:06.759Z,23.77
2018-07-06T18:34:42.295Z,23.84
2018-07-06T18:36:17.834Z,23.81
2018-07-06T18:37:53.443Z,23.66
2018-07-06T18:39:29.222Z,23.61
2018-07-06T18:41:04.773Z,23.70
2018-07-06T18:42:40.362Z,23.67
2018-07-06T18:44:16.102Z,23.67
2018-07-06T18:45:51.919Z,23.53
2018-07-06T18:47:27.460Z,23.36
2018-07-06T18:50:52.926Z,23.26
2018-07-06T18:52:28.530Z,23.28
2018-07-06T18:54:04.146Z,23.11
2018-07-06T18:55:39.719Z,23.05
2018-07-06T18:57:15.270Z,22.96
2018-07-06T18:58:50.835Z,22.80
2018-07-06T19:00:26.497Z,22.73
2018-07-06T19:03:36.656Z,22.67
2018-07-06T19:05:12.270Z,22.55
2018-07-06T19:06:47.852Z,22.48
2018-07-06T19:08:23.608Z,22.41
2018-07-06T19:09:59.257Z,22.37
2018-07-06T19:11:35.069Z,22.27
2018-07-06T19:13:10.673Z,22.19
2018-07-06T19:14:46.240Z,22.13
2018-07-06T19:16:21.821Z,22.06
2018-07-06T19:17:57.633Z,21.98
2018-07-06T19:19:33.172Z,21.87
2018-07-06T19:21:08.913Z,21.78
2018-07-06T19:22:44.483Z,21.78
2018-07-06T19:24:20.044Z,21.77
2018-07-06T19:25:55.972Z,21.75
2018-07-06T19:27:31.622Z,21.67
2018-07-06T19:29:07.207Z,21.63
2018-07-06T19:30:42.866Z,21.53
2018-07-06T19:32:18.457Z,21.49
2018-07-06T19:33:54.050Z,21.39
2018-07-06T19:35:29.634Z,21.33
2018-07-06T19:37:05.183Z,21.23
2018-07-06T19:38:40.712Z,21.14
2018-07-06T19:40:16.285Z,21.12
2018-07-06T19:41:51.827Z,21.01
2018-07-06T19:43:27.391Z,20.97
2018-07-06T19:45:02.976Z,20.89
2018-07-06T19:46:38.518Z,20.78
2018-07-06T19:48:14.359Z,20.78
2018-07-06T19:49:49.895Z,20.71
2018-07-06T19:51:25.477Z,20.68
2018-07-06T19:53:01.048Z,20.61
2018-07-06T19:54:36.643Z,20.55
2018-07-06T19:56:12.465Z,20.47
2018-07-06T19:57:48.044Z,20.42
2018-07-06T19:59:23.638Z,20.42
2018-07-06T20:00:59.184Z,20.32
2018-07-06T20:02:34.738Z,20.26
2018-07-06T20:04:10.376Z,20.21
2018-07-06T20:05:45.988Z,20.19
2018-07-06T20:07:21.565Z,20.17
2018-07-06T20:08:57.127Z,20.15
2018-07-06T20:10:32.695Z,20.15
2018-07-06T20:12:08.409Z,19.98
2018-07-06T20:13:43.995Z,19.93
2018-07-06T20:15:19.592Z,19.98
2018-07-06T20:16:55.140Z,19.96
2018-07-06T20:18:30.775Z,19.97
2018-07-06T20:20:07.112Z,19.95
2018-07-06T20:21:42.944Z,19.88
2018-07-06T20:23:18.511Z,19.81
2018-07-06T20:24:54.242Z,19.73
2018-07-06T20:26:29.780Z,19.75
2018-07-06T20:28:05.481Z,19.70
2018-07-06T20:29:41.065Z,19.68
2018-07-06T20:31:16.649Z,19.61
2018-07-06T20:32:52.454Z,19.57
2018-07-06T20:34:28.173Z,19.51
2018-07-06T20:36:04.116Z,19.50
2018-07-06T20:37:39.711Z,19.49
2018-07-06T20:39:15.303Z,19.40
2018-07-06T20:40:50.892Z,19.38
2018-07-06T20:42:26.484Z,19.33
2018-07-06T20:44:02.236Z,19.26
2018-07-06T20:45:37.801Z,19.23
2018-07-06T20:47:13.444Z,19.13
2018-07-06T20:48:49.008Z,19.01
2018-07-06T20:50:24.654Z,18.97
2018-07-06T20:52:00.250Z,18.97
2018-07-06T20:53:35.851Z,19.06
2018-07-06T20:55:11.435Z,18.92
2018-07-06T20:56:47.024Z,18.81
2018-07-06T20:58:22.592Z,18.73
2018-07-06T20:59:58.244Z,18.72
2018-07-06T21:01:34.008Z,18.69
2018-07-06T21:03:09.759Z,18.61
2018-07-06T21:04:45.667Z,18.56
2018-07-06T21:06:21.256Z,18.52
2018-07-06T21:07:56.826Z,18.47
2018-07-06T21:09:32.379Z,18.52
2018-07-06T21:11:08.213Z,18.46
2018-07-06T21:12:44.048Z,18.45
2018-07-06T21:14:19.632Z,18.47
2018-07-06T21:15:55.245Z,18.42
2018-07-06T21:17:30.808Z,18.35